Time;durP1;ratioP1;P1;durP2;ratioP2;P2;SDS_P1;SDS_P2;PMS_P1;PMS_P2;Temp;Humidity;BMP_temperature;BMP_pressure;BME280_temperature;BME280_humidity;BME280_pressure;Samples;Min_cycle;Max_cycle;Signal;HPM_P1;HPM_P2
2023/04/28 00:02:20;;;;;;;;;;;;;;;5.59;100.00;101772.19;5039582;28;19925;-79
2023/04/28 00:04:48;;;;;;;;;;;;;;;5.60;100.00;101768.75;5046243;28;19928;-79
2023/04/28 00:07:15;;;;;;;;;;;;;;;5.59;100.00;101764.34;5029695;28;19928;-78
2023/04/28 00:09:42;;;;;;;;;;;;;;;5.59;100.00;101761.72;5027492;28;19928;-79
2023/04/28 00:12:10;;;;;;;;;;;;;;;5.58;100.00;101758.22;5045190;28;19929;-78
2023/04/28 00:14:37;;;;;;;;;;;;;;;5.59;100.00;101752.13;5003042;28;19921;-78
2023/04/28 00:17:04;;;;;;;;;;;;;;;5.60;100.00;101746.09;5012741;28;19920;-78
2023/04/28 00:19:33;;;;;;;;;;;;;;;5.61;100.00;101746.97;5044797;28;19928;-78
2023/04/28 00:22:00;;;;;;;;;;;;;;;5.61;100.00;101741.75;5021438;28;20322;-78
2023/04/28 00:24:31;;;;;;;;;;;;;;;5.62;100.00;101733.09;5041393;28;19921;-79
2023/04/28 00:26:59;;;;;;;;;;;;;;;5.61;100.00;101728.66;5035101;28;19932;-79
2023/04/28 00:29:27;;;;;;;;;;;;;;;5.61;100.00;101729.59;4998536;28;19921;-79
2023/04/28 00:31:55;;;;;;;;;;;;;;;5.61;100.00;101720.81;5045897;28;20289;-78
2023/04/28 00:34:22;;;;;;;;;;;;;;;5.60;100.00;101717.34;5046230;28;19921;-78
2023/04/28 00:36:49;;;;;;;;;;;;;;;5.59;100.00;101712.03;5024662;28;19928;-78
2023/04/28 00:39:17;;;;;;;;;;;;;;;5.57;100.00;101711.97;5036303;28;19921;-77
2023/04/28 00:41:44;;;;;;;;;;;;;;;5.55;100.00;101713.66;5048634;28;19928;-78
2023/04/28 00:44:11;;;;;;;;;;;;;;;5.54;100.00;101705.75;5004368;28;19921;-77
2023/04/28 00:46:40;;;;;;;;;;;;;;;5.55;100.00;101704.91;5031819;28;19925;-78
2023/04/28 00:49:08;;;;;;;;;;;;;;;5.54;100.00;101703.13;5031555;28;19959;-77
2023/04/28 00:51:35;;;;;;;;;;;;;;;5.52;100.00;101696.94;5016719;28;19928;-78
2023/04/28 00:54:04;;;;;;;;;;;;;;;5.51;100.00;101690.84;5037159;28;20401;-78
2023/04/28 00:56:32;;;;;;;;;;;;;;;5.51;100.00;101700.41;5047240;28;20378;-78
2023/04/28 00:59:00;;;;;;;;;;;;;;;5.50;100.00;101688.16;5030693;28;20416;-78
2023/04/28 01:01:27;;;;;;;;;;;;;;;5.49;100.00;101682.06;4997642;28;19920;-79
2023/04/28 01:03:54;;;;;;;;;;;;;;;5.49;100.00;101678.56;5047891;28;19910;-77
2023/04/28 01:06:23;;;;;;;;;;;;;;;5.48;100.00;101677.63;5020508;28;19921;-79
2023/04/28 01:08:53;;;;;;;;;;;;;;;5.48;100.00;101685.47;5032851;28;19925;-79
2023/04/28 01:11:21;;;;;;;;;;;;;;;5.49;100.00;101668.97;5045577;28;19931;-79
2023/04/28 01:14:06;;;;;;;;;;;;;;;5.49;100.00;101679.44;5013248;28;19932;-78
2023/04/28 01:16:37;;;;;;;;;;;;;;;5.49;100.00;101673.31;5000968;28;19921;-78
2023/04/28 01:19:06;;;;;;;;;;;;;;;5.50;100.00;101675.09;5027503;28;19928;-78
2023/04/28 01:21:36;;;;;;;;;;;;;;;5.47;100.00;101668.03;5041827;28;19932;-79
2023/04/28 01:24:29;;;;;;;;;;;;;;;5.46;100.00;101667.16;5020853;28;19936;-78
2023/04/28 01:27:10;;;;;;;;;;;;;;;5.46;100.00;101667.16;5043342;28;20016;-78
2023/04/28 01:29:39;;;;;;;;;;;;;;;5.45;100.00;101659.25;5058372;28;19927;-79
2023/04/28 01:32:07;;;;;;;;;;;;;;;5.43;100.00;101656.56;5014537;28;19928;-78
2023/04/28 01:34:37;;;;;;;;;;;;;;;5.43;100.00;101640.00;5024080;28;19921;-78
2023/04/28 01:37:05;;;;;;;;;;;;;;;5.42;100.00;101633.88;5021317;28;19972;-78
2023/04/28 01:39:33;;;;;;;;;;;;;;;5.44;100.00;101647.00;5040504;28;19924;-78
2023/04/28 01:42:02;;;;;;;;;;;;;;;5.45;100.00;101639.22;5021629;28;19928;-79
2023/04/28 01:44:30;;;;;;;;;;;;;;;5.47;100.00;101642.78;5022127;28;19921;-78
2023/04/28 01:46:57;;;;;;;;;;;;;;;5.47;100.00;101640.16;5002437;28;19924;-78
2023/04/28 01:49:24;;;;;;;;;;;;;;;5.49;100.00;101632.38;5035686;28;19921;-78
2023/04/28 01:51:52;;;;;;;;;;;;;;;5.51;100.00;101629.81;5049980;28;19921;-78
2023/04/28 01:54:19;;;;;;;;;;;;;;;5.54;100.00;101632.53;5053938;28;19931;-79
2023/04/28 01:56:46;;;;;;;;;;;;;;;5.54;100.00;101630.84;5013476;28;19921;-78
2023/04/28 01:59:15;;;;;;;;;;;;;;;5.57;100.00;101627.44;5009160;28;19921;-78
2023/04/28 02:01:43;;;;;;;;;;;;;;;5.57;100.00;101622.19;5000755;28;19927;-79
2023/04/28 02:04:10;;;;;;;;;;;;;;;5.59;100.00;101610.06;5038436;28;19921;-78
2023/04/28 02:06:39;;;;;;;;;;;;;;;5.62;100.00;101615.41;5023994;28;19925;-78
2023/04/28 02:09:06;;;;;;;;;;;;;;;5.65;100.00;101613.81;5027053;28;19924;-78
2023/04/28 02:11:33;;;;;;;;;;;;;;;5.68;100.00;101605.16;5030550;28;19921;-78
2023/04/28 02:14:01;;;;;;;;;;;;;;;5.71;100.00;101605.28;5023425;28;19915;-78
2023/04/28 02:16:28;;;;;;;;;;;;;;;5.74;100.00;101594.91;5003389;28;19929;-78
2023/04/28 02:18:55;;;;;;;;;;;;;;;5.77;100.00;101584.56;5057633;28;19920;-78
2023/04/28 02:21:22;;;;;;;;;;;;;;;5.79;100.00;101584.63;5026390;28;20456;-79
2023/04/28 02:23:50;;;;;;;;;;;;;;;5.81;100.00;101575.97;5024398;28;19925;-78
2023/04/28 02:26:19;;;;;;;;;;;;;;;5.81;100.00;101575.09;5029396;28;19928;-78
2023/04/28 02:28:51;;;;;;;;;;;;;;;5.81;100.00;101569.88;5048239;28;19920;-78
2023/04/28 02:31:19;;;;;;;;;;;;;;;5.81;100.00;101565.53;5022210;28;19931;-78
2023/04/28 02:33:47;;;;;;;;;;;;;;;5.81;100.00;101565.53;5058980;28;19931;-78
2023/04/28 02:36:14;;;;;;;;;;;;;;;5.80;100.00;101549.78;5057123;28;20433;-78
2023/04/28 02:38:41;;;;;;;;;;;;;;;5.80;100.00;101547.16;5040770;28;19937;-78
2023/04/28 02:41:08;;;;;;;;;;;;;;;5.81;100.00;101549.84;5041409;28;19925;-78
2023/04/28 02:43:36;;;;;;;;;;;;;;;5.82;100.00;101540.25;5042307;28;19920;-78
2023/04/28 02:46:03;;;;;;;;;;;;;;;5.81;100.00;101531.53;5048278;28;19921;-78
2023/04/28 02:48:31;;;;;;;;;;;;;;;5.83;100.00;101529.84;5017419;28;20683;-79
2023/04/28 02:50:59;;;;;;;;;;;;;;;5.83;100.00;101524.59;5011820;28;19927;-78
2023/04/28 02:53:26;;;;;;;;;;;;;;;5.85;100.00;101514.22;5041009;28;19927;-79
2023/04/28 02:55:54;;;;;;;;;;;;;;;5.82;100.00;101506.25;5044726;28;19932;-78
2023/04/28 02:58:22;;;;;;;;;;;;;;;5.74;100.00;101506.00;5019816;28;20273;-79
2023/04/28 03:00:49;;;;;;;;;;;;;;;5.66;100.00;101515.31;5024952;28;19924;-78
2023/04/28 03:03:17;;;;;;;;;;;;;;;5.60;100.00;101504.66;4992043;28;19921;-78
2023/04/28 03:05:45;;;;;;;;;;;;;;;5.52;100.00;101503.50;5038146;28;19927;-79
2023/04/28 03:08:13;;;;;;;;;;;;;;;5.45;100.00;101492.84;5057973;28;19925;-78
2023/04/28 03:10:40;;;;;;;;;;;;;;;5.39;100.00;101495.25;5043633;28;19921;-78
2023/04/28 03:13:07;;;;;;;;;;;;;;;5.31;100.00;101487.97;5017538;28;19920;-78
2023/04/28 03:15:34;;;;;;;;;;;;;;;5.22;100.00;101499.00;5041818;28;19939;-78
2023/04/28 03:18:02;;;;;;;;;;;;;;;5.18;100.00;101497.06;5029271;28;19927;-78
2023/04/28 03:20:29;;;;;;;;;;;;;;;5.13;100.00;101490.81;5025664;28;19928;-77
2023/04/28 03:23:00;;;;;;;;;;;;;;;5.10;100.00;101490.72;5059582;28;20023;-78
2023/04/28 03:25:28;;;;;;;;;;;;;;;5.05;100.00;101491.44;5036547;28;20483;-78
2023/04/28 03:27:55;;;;;;;;;;;;;;;5.05;100.00;101499.28;5039543;28;19921;-78
2023/04/28 03:30:22;;;;;;;;;;;;;;;5.03;100.00;101473.94;5032092;28;19927;-78
2023/04/28 03:32:49;;;;;;;;;;;;;;;5.02;100.00;101475.63;5060946;28;19928;-79
2023/04/28 03:35:17;;;;;;;;;;;;;;;5.01;100.00;101475.56;4972220;28;20268;-79
2023/04/28 03:37:44;;;;;;;;;;;;;;;4.98;100.00;101465.91;5039197;28;19927;-78
2023/04/28 03:40:12;;;;;;;;;;;;;;;5.01;100.00;101466.03;5040230;28;20272;-78
2023/04/28 03:42:58;;;;;;;;;;;;;;;5.00;100.00;101464.25;5041972;28;19921;-79
2023/04/28 03:45:33;;;;;;;;;;;;;;;4.99;100.00;101452.03;5010646;28;19928;-78
2023/04/28 03:48:01;;;;;;;;;;;;;;;5.00;100.00;101453.81;5052310;28;20012;-78
2023/04/28 03:50:28;;;;;;;;;;;;;;;5.00;100.00;101442.47;4971873;28;19921;-78
2023/04/28 03:52:56;;;;;;;;;;;;;;;4.98;100.00;101447.63;5052673;28;19908;-78
2023/04/28 03:55:24;;;;;;;;;;;;;;;4.97;100.00;101440.66;5056797;28;20109;-78
2023/04/28 03:57:52;;;;;;;;;;;;;;;4.98;100.00;101428.47;5059600;28;20385;-79
2023/04/28 04:00:20;;;;;;;;;;;;;;;4.97;100.00;101430.19;5002075;28;19935;-79
2023/04/28 04:02:50;;;;;;;;;;;;;;;4.97;100.00;101417.16;4994443;28;19928;-78
2023/04/28 04:05:18;;;;;;;;;;;;;;;4.96;100.00;101417.97;4988236;28;19928;-78
2023/04/28 04:07:46;;;;;;;;;;;;;;;4.96;100.00;101411.88;5015801;28;19928;-78
2023/04/28 04:10:13;;;;;;;;;;;;;;;4.97;100.00;101409.31;5048724;28;19920;-78
2023/04/28 04:12:43;;;;;;;;;;;;;;;5.00;100.00;101418.97;5040887;28;19925;-78
2023/04/28 04:15:11;;;;;;;;;;;;;;;5.00;100.00;101419.84;5029813;28;19927;-78
2023/04/28 04:17:40;;;;;;;;;;;;;;;5.01;100.00;101416.41;5037079;28;20310;-78
2023/04/28 04:20:08;;;;;;;;;;;;;;;5.03;100.00;101421.69;5007397;28;19931;-78
2023/04/28 04:22:38;;;;;;;;;;;;;;;5.05;100.00;101418.28;5010114;28;19921;-78
2023/04/28 04:25:06;;;;;;;;;;;;;;;5.07;100.00;101419.22;5048665;28;19927;-79
2023/04/28 04:27:34;;;;;;;;;;;;;;;5.07;100.00;101420.97;5033024;28;20044;-77
2023/04/28 04:30:02;;;;;;;;;;;;;;;5.08;100.00;101420.09;5051856;28;19924;-78
2023/04/28 04:32:30;;;;;;;;;;;;;;;5.09;100.00;101411.44;5027266;28;19928;-77
2023/04/28 04:34:57;;;;;;;;;;;;;;;5.07;100.00;101408.78;5058177;28;19931;-78
2023/04/28 04:37:24;;;;;;;;;;;;;;;5.09;100.00;101414.06;4982494;28;21086;-79
2023/04/28 04:39:57;;;;;;;;;;;;;;;5.08;100.00;101415.78;5046247;28;19928;-78
2023/04/28 04:42:24;;;;;;;;;;;;;;;5.09;100.00;101403.63;5014356;28;20265;-79
2023/04/28 04:45:07;;;;;;;;;;;;;;;5.11;100.00;101417.63;5039321;28;19932;-78
2023/04/28 04:47:35;;;;;;;;;;;;;;;5.12;100.00;101405.44;5024578;28;19925;-78
2023/04/28 04:50:02;;;;;;;;;;;;;;;5.16;100.00;101404.69;5053303;28;19927;-78
2023/04/28 04:52:30;;;;;;;;;;;;;;;5.17;100.00;101396.03;5004895;28;19928;-79
2023/04/28 04:54:59;;;;;;;;;;;;;;;5.19;100.00;101399.59;5031281;28;19935;-79
2023/04/28 04:57:26;;;;;;;;;;;;;;;5.22;100.00;101386.63;5019995;28;19928;-79
2023/04/28 05:00:20;;;;;;;;;;;;;;;5.24;100.00;101388.44;5022442;28;19939;-78
2023/04/28 05:02:47;;;;;;;;;;;;;;;5.27;100.00;101383.34;5030136;28;19925;-78
2023/04/28 05:05:17;;;;;;;;;;;;;;;5.34;100.00;101381.81;5031676;28;20279;-78
2023/04/28 05:08:07;;;;;;;;;;;;;;;5.39;100.00;101377.63;5015725;28;19973;-79
2023/04/28 05:10:37;;;;;;;;;;;;;;;5.45;100.00;101375.19;5017286;28;19925;-79
2023/04/28 05:13:19;;;;;;;;;;;;;;;5.53;100.00;101382.41;5041413;28;19929;-78
2023/04/28 05:15:58;;;;;;;;;;;;;;;5.61;100.00;101376.59;5030993;28;19921;-79
2023/04/28 05:18:53;;;;;;;;;;;;;;;5.68;100.00;101380.28;5048889;28;19931;-78
2023/04/28 05:21:23;;;;;;;;;;;;;;;5.75;100.00;101376.16;5021868;28;19936;-78
2023/04/28 05:23:51;;;;;;;;;;;;;;;5.81;100.00;101376.34;4993462;28;19995;-79
2023/04/28 05:26:23;;;;;;;;;;;;;;;5.88;100.00;101377.38;5032580;28;20250;-79
2023/04/28 05:28:54;;;;;;;;;;;;;;;5.94;100.00;101368.03;5028576;28;20383;-79
2023/04/28 05:31:21;;;;;;;;;;;;;;;6.00;100.00;101367.34;5044516;28;19924;-79
2023/04/28 05:33:49;;;;;;;;;;;;;;;6.07;100.00;101364.09;5018782;28;19920;-78
2023/04/28 05:36:17;;;;;;;;;;;;;;;6.12;100.00;101369.44;5033229;28;19949;-78
2023/04/28 05:38:45;;;;;;;;;;;;;;;6.16;100.00;101366.06;4988216;28;19932;-78
2023/04/28 05:45:12;;;;;;;;;;;;;;;6.24;100.00;101348.88;5023420;28;20517;-80
2023/04/28 05:47:39;;;;;;;;;;;;;;;6.25;100.00;101356.75;5036767;28;19925;-78
2023/04/28 05:50:07;;;;;;;;;;;;;;;6.25;100.00;101341.03;5022413;28;19925;-78
2023/04/28 05:52:34;;;;;;;;;;;;;;;6.27;100.00;101334.97;5033575;28;19940;-78
2023/04/28 05:55:01;;;;;;;;;;;;;;;6.22;100.00;101327.88;5003813;28;19920;-78
2023/04/28 05:57:31;;;;;;;;;;;;;;;6.21;100.00;101341.81;5040201;28;19932;-78
2023/04/28 06:00:16;;;;;;;;;;;;;;;6.22;100.00;101345.34;5046035;28;19921;-77
2023/04/28 06:02:43;;;;;;;;;;;;;;;6.23;100.00;101340.13;5023182;28;19925;-79
2023/04/28 06:05:10;;;;;;;;;;;;;;;6.24;100.00;101341.91;5019427;28;21402;-78
2023/04/28 06:07:38;;;;;;;;;;;;;;;6.29;100.00;101336.78;5040439;28;20417;-79
2023/04/28 06:10:07;;;;;;;;;;;;;;;6.31;100.00;101337.72;4993006;28;19929;-79
2023/04/28 06:12:36;;;;;;;;;;;;;;;6.34;100.00;101352.63;5023140;28;20631;-79
2023/04/28 06:15:05;;;;;;;;;;;;;;;6.37;100.00;101348.38;5032105;28;19932;-79
2023/04/28 06:17:32;;;;;;;;;;;;;;;6.38;100.00;101346.66;5047707;28;19931;-79
2023/04/28 06:20:00;;;;;;;;;;;;;;;6.39;100.00;101343.16;5025236;28;19928;-78
2023/04/28 06:22:27;;;;;;;;;;;;;;;6.40;100.00;101337.09;5033419;28;19932;-78
2023/04/28 06:24:54;;;;;;;;;;;;;;;6.41;100.00;101333.66;5012182;28;19924;-78
2023/04/28 06:27:31;;;;;;;;;;;;;;;6.41;100.00;101337.16;5021768;28;19925;-78
2023/04/28 06:29:58;;;;;;;;;;;;;;;6.44;100.00;101336.34;5044205;28;19920;-78
2023/04/28 06:32:25;;;;;;;;;;;;;;;6.48;100.00;101329.47;5048976;28;19924;-78
2023/04/28 06:34:53;;;;;;;;;;;;;;;6.49;100.00;101326.88;5014687;28;19944;-78
2023/04/28 06:37:23;;;;;;;;;;;;;;;6.56;100.00;101320.06;5046102;28;20464;-78
2023/04/28 06:39:56;;;;;;;;;;;;;;;6.60;100.00;101311.47;5011452;28;19921;-78
2023/04/28 06:42:24;;;;;;;;;;;;;;;6.66;100.00;101310.75;5005835;28;19924;-78
2023/04/28 06:45:12;;;;;;;;;;;;;;;6.71;100.00;101315.28;5023924;28;20260;-78
2023/04/28 06:47:41;;;;;;;;;;;;;;;6.78;100.00;101311.06;5046983;28;19925;-78
2023/04/28 06:50:08;;;;;;;;;;;;;;;6.86;100.00;101300.78;5028343;28;19929;-78
2023/04/28 06:52:37;;;;;;;;;;;;;;;6.92;100.00;101306.16;5042493;28;19921;-79
2023/04/28 06:55:06;;;;;;;;;;;;;;;6.95;100.00;101298.41;5040815;28;19921;-78
2023/04/28 06:57:34;;;;;;;;;;;;;;;6.95;100.00;101304.50;5002524;28;20290;-78
2023/04/28 07:00:03;;;;;;;;;;;;;;;6.99;100.00;101292.38;5022517;28;19921;-78
2023/04/28 07:02:30;;;;;;;;;;;;;;;7.05;100.00;101281.16;5034891;28;19936;-79
2023/04/28 07:04:58;;;;;;;;;;;;;;;7.05;100.00;101294.25;5031186;28;19928;-80
2023/04/28 07:07:25;;;;;;;;;;;;;;;7.07;100.00;101297.81;5026033;28;19932;-79
2023/04/28 07:09:54;;;;;;;;;;;;;;;7.12;100.00;101299.69;5036216;28;19921;-80
2023/04/28 07:12:22;;;;;;;;;;;;;;;7.17;100.00;101292.84;5023552;28;19920;-78
2023/04/28 07:14:49;;;;;;;;;;;;;;;7.22;100.00;101290.31;5018710;28;19936;-79
2023/04/28 07:17:17;;;;;;;;;;;;;;;7.23;100.00;101290.34;5033931;28;20390;-80
2023/04/28 07:19:44;;;;;;;;;;;;;;;7.27;100.00;101287.81;5008876;28;19921;-78
2023/04/28 07:22:11;;;;;;;;;;;;;;;7.34;100.00;101281.88;5013460;28;19932;-79
2023/04/28 07:24:39;;;;;;;;;;;;;;;7.43;100.00;101289.97;5014147;28;19932;-79
2023/04/28 07:27:06;;;;;;;;;;;;;;;7.45;100.00;101276.84;5023933;28;20534;-78
2023/04/28 07:29:34;;;;;;;;;;;;;;;7.50;100.00;101272.59;4994986;28;19992;-78
2023/04/28 07:32:03;;;;;;;;;;;;;;;7.58;100.00;101271.03;5051602;28;19924;-79
2023/04/28 07:34:34;;;;;;;;;;;;;;;7.67;100.00;101286.09;5033409;28;20274;-78
2023/04/28 07:37:02;;;;;;;;;;;;;;;7.73;100.00;101283.59;5011033;28;20000;-78
2023/04/28 07:39:33;;;;;;;;;;;;;;;7.74;100.00;101277.53;5035238;28;19928;-78
2023/04/28 07:42:01;;;;;;;;;;;;;;;7.70;100.00;101268.69;5020521;28;20311;-79
2023/04/28 07:44:29;;;;;;;;;;;;;;;7.76;100.00;101268.81;5020578;28;19932;-79
2023/04/28 07:46:58;;;;;;;;;;;;;;;7.80;100.00;101278.53;5022085;28;19924;-78
2023/04/28 07:49:26;;;;;;;;;;;;;;;7.89;100.00;101271.72;5034740;28;19932;-78
2023/04/28 07:51:54;;;;;;;;;;;;;;;7.90;100.00;101263.88;5022520;28;19939;-77
2023/04/28 07:54:22;;;;;;;;;;;;;;;7.94;100.00;101276.22;5044267;28;19951;-79
2023/04/28 07:56:49;;;;;;;;;;;;;;;7.95;100.00;101266.59;5027882;28;19928;-78
2023/04/28 07:59:16;;;;;;;;;;;;;;;7.97;100.00;101264.88;4984601;28;19921;-79
2023/04/28 08:01:43;;;;;;;;;;;;;;;8.00;100.00;101259.69;5018748;28;19932;-78
2023/04/28 08:04:11;;;;;;;;;;;;;;;8.06;100.00;101261.56;5032877;28;21183;-79
2023/04/28 08:06:39;;;;;;;;;;;;;;;8.08;100.00;101268.59;5012828;28;20283;-78
2023/04/28 08:09:08;;;;;;;;;;;;;;;8.04;100.00;101253.66;5024130;28;19936;-78
2023/04/28 08:11:35;;;;;;;;;;;;;;;8.01;100.00;101248.34;5029562;28;19932;-79
2023/04/28 08:14:02;;;;;;;;;;;;;;;7.99;100.00;101250.03;5004034;28;19925;-79
2023/04/28 08:16:30;;;;;;;;;;;;;;;8.01;100.00;101245.72;5018125;28;19924;-78
2023/04/28 08:18:59;;;;;;;;;;;;;;;8.05;100.00;101244.91;5049956;28;19932;-78
2023/04/28 08:21:28;;;;;;;;;;;;;;;8.10;100.00;101242.41;5030838;28;19925;-78
2023/04/28 08:23:55;;;;;;;;;;;;;;;8.14;100.00;101252.97;5025061;28;19921;-78
2023/04/28 08:26:23;;;;;;;;;;;;;;;8.18;100.00;101246.94;5045903;28;19925;-79
2023/04/28 08:28:50;;;;;;;;;;;;;;;8.26;100.00;101241.84;5032537;28;19932;-79
2023/04/28 08:31:18;;;;;;;;;;;;;;;8.22;100.00;101245.25;4988654;28;19955;-79
2023/04/28 08:33:47;;;;;;;;;;;;;;;8.18;100.00;101248.66;5034461;28;19932;-79
2023/04/28 08:36:16;;;;;;;;;;;;;;;8.18;100.00;101246.94;5033464;28;19924;-79
2023/04/28 08:38:44;;;;;;;;;;;;;;;8.20;100.00;101249.59;5025129;28;19932;-79
2023/04/28 08:41:13;;;;;;;;;;;;;;;8.15;100.00;101252.13;5040584;28;19932;-78
2023/04/28 08:43:42;;;;;;;;;;;;;;;8.08;100.00;101250.22;5021628;28;19920;-79
2023/04/28 08:46:09;;;;;;;;;;;;;;;8.08;100.00;101250.22;4970813;28;19931;-79
2023/04/28 08:48:42;;;;;;;;;;;;;;;8.11;100.00;101247.69;5014100;28;19921;-80
2023/04/28 08:51:13;;;;;;;;;;;;;;;8.19;100.00;101247.81;5037872;28;19936;-79
2023/04/28 08:53:43;;;;;;;;;;;;;;;8.25;100.00;101247.94;5023454;28;19921;-79
2023/04/28 08:56:31;;;;;;;;;;;;;;;8.26;100.00;101244.47;5036460;28;19921;-79
2023/04/28 08:59:03;;;;;;;;;;;;;;;8.24;100.00;101247.91;5014100;28;20298;-80
2023/04/28 09:01:31;;;;;;;;;;;;;;;8.24;100.00;101242.66;4991769;28;19929;-79
2023/04/28 09:04:01;;;;;;;;;;;;;;;8.25;100.00;101236.56;5052016;28;20007;-79
2023/04/28 09:06:33;;;;;;;;;;;;;;;8.27;100.00;101230.47;5030008;28;19921;-80
2023/04/28 09:09:18;;;;;;;;;;;;;;;8.37;100.00;101223.63;5027161;28;19925;-80
2023/04/28 09:11:54;;;;;;;;;;;;;;;8.48;100.00;101224.75;5037653;28;20314;-79
2023/04/28 09:14:22;;;;;;;;;;;;;;;8.55;100.00;101221.38;4997725;28;19929;-80
2023/04/28 09:16:50;;;;;;;;;;;;;;;8.62;100.00;101222.38;4995803;28;19928;-80
2023/04/28 09:19:17;;;;;;;;;;;;;;;8.65;100.00;101222.41;5008283;28;19928;-79
2023/04/28 09:21:45;;;;;;;;;;;;;;;8.70;100.00;101217.25;5034019;28;20382;-80
2023/04/28 09:24:24;;;;;;;;;;;;;;;8.71;100.00;101216.38;5030668;28;19921;-79
2023/04/28 09:26:51;;;;;;;;;;;;;;;8.66;100.00;101220.66;5030306;28;19921;-79
2023/04/28 09:29:21;;;;;;;;;;;;;;;8.65;100.00;101209.28;5029442;28;20444;-80
2023/04/28 09:31:54;;;;;;;;;;;;;;;8.59;100.00;101198.69;5032848;28;19925;-79
2023/04/28 09:34:22;;;;;;;;;;;;;;;8.61;100.00;101211.84;4962155;28;19976;-79
2023/04/28 09:36:49;;;;;;;;;;;;;;;8.65;100.00;101205.78;5029605;28;19921;-79
2023/04/28 09:39:27;;;;;;;;;;;;;;;8.67;100.00;101204.06;5026089;28;19921;-78
2023/04/28 09:41:57;;;;;;;;;;;;;;;8.66;100.00;101197.94;5035715;28;19920;-78
2023/04/28 09:44:25;;;;;;;;;;;;;;;8.73;100.00;101191.03;5039512;28;19932;-78
2023/04/28 09:46:52;;;;;;;;;;;;;;;8.80;100.00;101195.53;5033739;28;19961;-79
2023/04/28 09:49:22;;;;;;;;;;;;;;;8.84;100.00;101196.44;4972704;28;20657;-79
2023/04/28 09:51:50;;;;;;;;;;;;;;;8.90;100.00;101186.94;5022376;28;20302;-78
2023/04/28 09:54:22;;;;;;;;;;;;;;;8.98;100.00;101177.41;5040818;28;19925;-79
2023/04/28 09:56:52;;;;;;;;;;;;;;;9.13;100.00;101167.97;4997210;28;19932;-79
2023/04/28 09:59:20;;;;;;;;;;;;;;;9.22;100.00;101162.84;5038533;28;19931;-79
2023/04/28 10:01:50;;;;;;;;;;;;;;;9.44;100.00;101158.75;5034655;28;19925;-78
2023/04/28 10:04:18;;;;;;;;;;;;;;;9.69;100.00;101149.41;4995578;28;19921;-78
2023/04/28 10:06:45;;;;;;;;;;;;;;;9.96;100.00;101147.94;5020472;28;19924;-79
2023/04/28 10:09:13;;;;;;;;;;;;;;;10.31;100.00;101150.97;5023038;28;19932;-77
2023/04/28 10:11:41;;;;;;;;;;;;;;;10.49;100.00;101157.25;5012137;28;19921;-78
2023/04/28 10:14:08;;;;;;;;;;;;;;;10.60;100.00;101152.09;5013221;28;19925;-78
2023/04/28 10:16:36;;;;;;;;;;;;;;;10.79;100.00;101146.06;5028894;28;19924;-78
2023/04/28 10:19:07;;;;;;;;;;;;;;;11.03;100.00;101142.72;4997773;28;19920;-78
2023/04/28 10:21:40;;;;;;;;;;;;;;;11.30;100.00;101144.66;5028051;28;19927;-79
2023/04/28 10:24:09;;;;;;;;;;;;;;;11.38;100.00;101133.22;5015509;28;19928;-78
2023/04/28 10:26:49;;;;;;;;;;;;;;;11.40;100.00;101136.75;5035945;28;19925;-79
2023/04/28 10:29:21;;;;;;;;;;;;;;;11.48;100.00;101129.75;5030900;28;20301;-79
2023/04/28 10:32:08;;;;;;;;;;;;;;;11.41;100.00;101133.25;5032866;28;19921;-79
2023/04/28 10:34:35;;;;;;;;;;;;;;;11.54;100.00;101124.50;5010280;28;20798;-78
2023/04/28 10:37:02;;;;;;;;;;;;;;;11.66;100.00;101128.94;5052396;28;19929;-78
2023/04/28 10:39:30;;;;;;;;;;;;;;;11.80;100.00;101121.94;5051648;28;19920;-79
2023/04/28 10:41:57;;;;;;;;;;;;;;;11.93;100.00;101111.41;5040689;28;19921;-79
2023/04/28 10:44:27;;;;;;;;;;;;;;;12.05;100.00;101109.69;5033561;28;19932;-79
2023/04/28 10:47:05;;;;;;;;;;;;;;;12.18;100.00;101107.94;5038284;28;19931;-79
2023/04/28 10:49:51;;;;;;;;;;;;;;;12.20;100.00;101105.31;4991536;28;19932;-80
2023/04/28 10:52:45;;;;;;;;;;;;;;;12.19;100.00;101109.72;5046686;28;19932;-79
2023/04/28 10:55:26;;;;;;;;;;;;;;;12.13;100.00;101114.97;5018191;28;19932;-78
2023/04/28 10:58:12;;;;;;;;;;;;;;;12.22;100.00;101108.84;5046406;28;19921;-78
2023/04/28 11:00:40;;;;;;;;;;;;;;;12.26;100.00;101105.31;5022466;28;19921;-80
2023/04/28 11:03:08;;;;;;;;;;;;;;;12.22;100.00;101098.25;5022713;28;19920;-79
2023/04/28 11:05:36;;;;;;;;;;;;;;;12.13;100.00;101099.13;4997774;28;19924;-78
2023/04/28 11:08:22;;;;;;;;;;;;;;;12.11;100.00;101102.66;5040467;28;19936;-78
2023/04/28 11:11:08;;;;;;;;;;;;;;;12.06;100.00;101100.91;5040057;28;19932;-78
2023/04/28 11:13:36;;;;;;;;;;;;;;;12.06;100.00;101097.34;5053371;28;19920;-78
2023/04/28 11:16:04;;;;;;;;;;;;;;;12.07;100.00;101094.72;5038588;28;19921;-79
2023/04/28 11:18:51;;;;;;;;;;;;;;;12.04;100.00;101088.56;5051280;28;19921;-79
2023/04/28 11:21:22;;;;;;;;;;;;;;;12.02;100.00;101090.31;5002734;28;19924;-79
2023/04/28 11:23:49;;;;;;;;;;;;;;;12.01;100.00;101089.44;5047718;28;20051;-79
2023/04/28 11:26:18;;;;;;;;;;;;;;;11.97;100.00;101092.97;5044421;28;19920;-79
2023/04/28 11:28:47;;;;;;;;;;;;;;;11.94;100.00;101090.31;5029720;28;19921;-79
2023/04/28 11:31:21;;;;;;;;;;;;;;;11.85;100.00;101088.53;5025535;28;19920;-78
2023/04/28 11:34:00;;;;;;;;;;;;;;;11.76;100.00;101092.88;5043428;28;19976;-79
2023/04/28 11:36:31;;;;;;;;;;;;;;;11.59;100.00;101079.66;5000096;28;19920;-77
2023/04/28 11:38:59;;;;;;;;;;;;;;;11.51;100.00;101082.25;5043065;28;19921;-80
2023/04/28 11:41:26;;;;;;;;;;;;;;;11.44;100.00;101078.72;5051876;28;19920;-79
2023/04/28 11:43:53;;;;;;;;;;;;;;;11.39;100.00;101083.09;5038714;28;19925;-77
2023/04/28 11:46:23;;;;;;;;;;;;;;;11.34;100.00;101082.19;5028229;28;19929;-78
2023/04/28 11:49:04;;;;;;;;;;;;;;;11.27;100.00;101080.44;5039515;28;19924;-78
2023/04/28 11:51:37;;;;;;;;;;;;;;;11.17;100.00;101090.06;5007779;28;19925;-78
2023/04/28 11:54:10;;;;;;;;;;;;;;;11.14;100.00;101075.97;5040307;28;19932;-79
2023/04/28 11:56:38;;;;;;;;;;;;;;;11.04;100.00;101070.66;5051119;28;19925;-78
2023/04/28 11:59:07;;;;;;;;;;;;;;;11.02;100.00;101077.69;5033410;28;19924;-78
2023/04/28 12:01:50;;;;;;;;;;;;;;;11.03;100.00;101073.28;5042333;28;19928;-77
2023/04/28 12:04:34;;;;;;;;;;;;;;;11.08;100.00;101066.28;5022687;28;19928;-78
2023/04/28 12:07:02;;;;;;;;;;;;;;;11.12;100.00;101058.38;4981401;28;20525;-78
2023/04/28 12:09:30;;;;;;;;;;;;;;;11.13;100.00;101056.59;5037389;28;19920;-77
2023/04/28 12:11:59;;;;;;;;;;;;;;;11.14;100.00;101050.47;5034758;28;19925;-78
2023/04/28 12:14:27;;;;;;;;;;;;;;;11.11;100.00;101061.00;5032549;28;19921;-78
2023/04/28 12:16:55;;;;;;;;;;;;;;;11.05;100.00;101056.56;5027929;28;19960;-78
2023/04/28 12:19:23;;;;;;;;;;;;;;;11.05;100.00;101058.34;5024443;28;19925;-78
2023/04/28 12:22:02;;;;;;;;;;;;;;;11.00;100.00;101049.53;5038151;28;19921;-78
2023/04/28 12:24:31;;;;;;;;;;;;;;;10.96;100.00;101051.25;5004453;28;19948;-78
2023/04/28 12:27:20;;;;;;;;;;;;;;;10.96;100.00;101055.66;5042692;28;19928;-77
2023/04/28 12:29:48;;;;;;;;;;;;;;;10.93;100.00;101053.91;5025856;28;19927;-79
2023/04/28 12:32:17;;;;;;;;;;;;;;;10.88;100.00;101060.91;5025058;28;19931;-77
2023/04/28 12:34:45;;;;;;;;;;;;;;;10.84;100.00;101052.09;5033630;28;19947;-78
2023/04/28 12:37:13;;;;;;;;;;;;;;;10.82;100.00;101053.84;5002843;28;19925;-77
2023/04/28 12:39:40;;;;;;;;;;;;;;;10.82;100.00;101048.56;4981661;28;19936;-79
2023/04/28 12:42:08;;;;;;;;;;;;;;;10.80;100.00;101046.81;5027794;28;20020;-78
2023/04/28 12:44:36;;;;;;;;;;;;;;;10.78;100.00;101045.91;5029363;28;20299;-78
2023/04/28 12:47:09;;;;;;;;;;;;;;;10.77;100.00;101052.91;5033083;28;19935;-78
2023/04/28 12:49:38;;;;;;;;;;;;;;;10.78;100.00;101044.16;5003364;28;19929;-77
2023/04/28 12:52:06;;;;;;;;;;;;;;;10.70;100.00;101049.38;5030896;28;19925;-78
2023/04/28 12:54:33;;;;;;;;;;;;;;;10.65;100.00;101044.94;4983190;28;19931;-78